createdAt,value
2022-08-14T00:01:50.168Z,6.95
2022-08-14T00:04:34.770Z,6.80
2022-08-14T00:07:07.021Z,6.90
2022-08-14T00:09:55.300Z,6.97
2022-08-14T00:12:24.097Z,6.90
2022-08-14T00:14:55.289Z,6.97
2022-08-14T00:17:22.970Z,7.45
2022-08-14T00:19:51.652Z,7.93
2022-08-14T00:22:44.055Z,7.18
2022-08-14T00:25:12.519Z,7.63
2022-08-14T00:27:42.373Z,7.45
2022-08-14T00:30:11.189Z,7.38
2022-08-14T00:33:00.723Z,7.53
2022-08-14T00:36:33.877Z,7.65
2022-08-14T00:38:16.646Z,7.93
2022-08-14T00:40:46.115Z,7.43
2022-08-14T00:43:13.717Z,8.15
2022-08-14T00:45:42.399Z,7.85
2022-08-14T00:48:10.521Z,7.97
2022-08-14T00:50:38.383Z,7.68
2022-08-14T00:53:10.586Z,7.38
2022-08-14T00:55:41.330Z,8.35
2022-08-14T00:58:32.795Z,7.77
2022-08-14T01:01:00.797Z,8.32
2022-08-14T01:03:30.809Z,8.07
2022-08-14T01:06:00.544Z,8.48
2022-08-14T01:08:51.135Z,8.90
2022-08-14T01:11:18.988Z,8.30
2022-08-14T01:13:50.891Z,8.60
2022-08-14T01:16:27.412Z,9.23
2022-08-14T01:19:13.456Z,8.63
2022-08-14T01:21:47.120Z,8.40
2022-08-14T01:24:28.863Z,8.90
2022-08-14T01:27:01.903Z,8.20
2022-08-14T01:30:03.767Z,8.73
2022-08-14T01:32:25.090Z,8.68
2022-08-14T01:35:19.689Z,9.23
2022-08-14T01:37:56.187Z,8.18
2022-08-14T01:40:33.017Z,8.48
2022-08-14T01:43:07.868Z,8.32
2022-08-14T01:45:40.634Z,9.77
2022-08-14T01:48:13.537Z,8.70
2022-08-14T01:53:10.511Z,8.20
2022-08-14T01:55:40.438Z,8.60
2022-08-14T01:58:19.493Z,9.65
2022-08-14T02:00:55.460Z,9.25
2022-08-14T02:03:29.981Z,8.88
2022-08-14T02:06:03.794Z,8.57
2022-08-14T02:08:53.311Z,8.88
2022-08-14T02:11:24.121Z,8.45
2022-08-14T02:14:07.244Z,8.95
2022-08-14T02:16:39.405Z,9.48
2022-08-14T02:19:15.967Z,8.65
2022-08-14T02:21:50.295Z,9.18
2022-08-14T02:24:39.349Z,8.23
2022-08-14T02:28:23.171Z,8.88
2022-08-14T02:29:59.933Z,9.55
2022-08-14T02:32:30.518Z,9.52
2022-08-14T02:35:10.356Z,10.23
2022-08-14T02:37:47.231Z,9.10
2022-08-14T02:40:16.425Z,9.23
2022-08-14T02:42:54.793Z,9.50
2022-08-14T02:45:38.894Z,8.73
2022-08-14T02:49:04.654Z,9.63
2022-08-14T02:51:00.798Z,9.15
2022-08-14T02:53:31.596Z,8.82
2022-08-14T02:56:03.184Z,9.60
2022-08-14T02:58:32.566Z,8.82
2022-08-14T03:01:01.566Z,9.70
2022-08-14T03:03:31.581Z,9.98
2022-08-14T03:06:00.288Z,10.02
2022-08-14T03:08:31.799Z,9.55
2022-08-14T03:11:00.341Z,10.10
2022-08-14T03:13:29.604Z,9.98
2022-08-14T03:15:58.102Z,9.30
2022-08-14T03:18:31.326Z,9.45
2022-08-14T03:21:05.239Z,9.98
2022-08-14T03:23:37.990Z,9.55
2022-08-14T03:26:13.298Z,10.00
2022-08-14T03:28:47.776Z,9.77
2022-08-14T03:31:15.480Z,9.70
2022-08-14T03:33:43.659Z,10.40
2022-08-14T03:37:38.259Z,9.57
2022-08-14T03:39:15.244Z,11.00
2022-08-14T03:41:52.716Z,10.05
2022-08-14T03:45:18.931Z,10.30
2022-08-14T03:47:08.075Z,10.13
2022-08-14T03:49:42.371Z,9.77
2022-08-14T03:52:27.889Z,10.52
2022-08-14T03:54:58.892Z,10.70
2022-08-14T03:57:26.155Z,11.00
2022-08-14T03:59:53.040Z,10.48
2022-08-14T04:02:37.117Z,10.30
2022-08-14T04:05:11.847Z,10.88
2022-08-14T04:07:49.536Z,10.45
2022-08-14T04:10:17.819Z,10.63
2022-08-14T04:13:03.700Z,10.43
2022-08-14T04:15:31.901Z,10.93
2022-08-14T04:18:19.003Z,10.68
2022-08-14T04:20:54.433Z,10.02
2022-08-14T04:23:23.640Z,10.15
2022-08-14T04:25:56.923Z,9.23
2022-08-14T04:29:08.009Z,10.10
2022-08-14T04:31:12.977Z,10.05
2022-08-14T04:33:42.769Z,10.10
2022-08-14T04:36:15.732Z,10.63
2022-08-14T04:39:03.207Z,10.55
2022-08-14T04:41:53.129Z,10.50
2022-08-14T04:44:35.927Z,9.88
2022-08-14T04:47:22.473Z,11.63
2022-08-14T04:49:57.353Z,11.35
2022-08-14T04:52:25.162Z,11.30
2022-08-14T04:54:52.479Z,10.70
2022-08-14T04:57:21.976Z,11.30
2022-08-14T04:59:50.890Z,10.63
2022-08-14T05:02:18.186Z,10.63
2022-08-14T05:04:57.200Z,10.23
2022-08-14T05:07:47.061Z,11.20
2022-08-14T05:10:16.517Z,11.50
2022-08-14T05:13:14.381Z,11.18
2022-08-14T05:15:37.271Z,11.15
2022-08-14T05:18:17.334Z,11.63
2022-08-14T05:21:55.228Z,10.93
2022-08-14T05:23:42.006Z,12.20
2022-08-14T05:26:21.637Z,11.20
2022-08-14T05:28:48.782Z,11.48
2022-08-14T05:31:20.416Z,11.05
2022-08-14T05:33:54.611Z,11.77
2022-08-14T05:36:25.103Z,12.05
2022-08-14T05:38:53.284Z,11.55
2022-08-14T05:41:21.837Z,11.30
2022-08-14T05:43:49.485Z,10.20
2022-08-14T05:46:22.848Z,10.05
2022-08-14T05:48:53.476Z,9.43
2022-08-14T05:51:21.594Z,9.05
2022-08-14T05:53:56.984Z,8.52
2022-08-14T05:56:37.282Z,8.38
2022-08-14T05:59:05.560Z,8.02
2022-08-14T06:01:34.293Z,8.90
2022-08-14T06:04:02.204Z,9.85
2022-08-14T06:06:36.419Z,9.45
2022-08-14T06:09:05.390Z,10.07
2022-08-14T06:11:36.668Z,10.18
2022-08-14T06:14:03.653Z,9.88
2022-08-14T06:16:30.539Z,9.65
2022-08-14T06:19:00.551Z,10.27
2022-08-14T06:21:28.003Z,10.65
2022-08-14T06:23:56.534Z,10.70
2022-08-14T06:26:30.341Z,10.38
2022-08-14T06:29:00.357Z,9.73
2022-08-14T06:31:27.305Z,10.23
2022-08-14T06:35:03.148Z,10.10
2022-08-14T06:36:50.069Z,9.85
2022-08-14T06:39:37.502Z,10.20
2022-08-14T06:42:07.909Z,9.63
2022-08-14T06:44:55.254Z,10.13
2022-08-14T06:47:22.156Z,9.95
2022-08-14T06:49:57.709Z,10.00
2022-08-14T06:52:25.046Z,10.15
2022-08-14T06:54:52.023Z,10.10
2022-08-14T06:57:19.056Z,10.02
2022-08-14T06:59:48.644Z,10.05
2022-08-14T07:02:43.412Z,10.52
2022-08-14T07:05:29.292Z,9.60
2022-08-14T07:07:58.155Z,9.18
2022-08-14T07:10:28.711Z,10.55
2022-08-14T07:13:04.037Z,9.63
2022-08-14T07:15:33.885Z,10.02
2022-08-14T07:18:02.315Z,10.13
2022-08-14T07:20:32.077Z,10.30
2022-08-14T07:23:08.390Z,9.25
2022-08-14T07:25:42.156Z,10.10
2022-08-14T07:28:20.959Z,9.63
2022-08-14T07:30:50.945Z,9.20
2022-08-14T07:33:20.888Z,9.07
2022-08-14T07:35:57.887Z,9.63
2022-08-14T07:38:36.346Z,9.70
2022-08-14T07:41:11.932Z,9.52
2022-08-14T07:43:42.691Z,8.73
2022-08-14T07:46:11.649Z,9.55
2022-08-14T07:48:40.792Z,10.80
2022-08-14T07:51:10.827Z,9.55
2022-08-14T07:53:40.498Z,8.75
2022-08-14T07:56:44.158Z,9.27
2022-08-14T07:58:58.383Z,8.85
2022-08-14T08:01:26.347Z,8.75
2022-08-14T08:03:59.685Z,9.18
2022-08-14T08:06:27.573Z,8.73
2022-08-14T08:09:01.357Z,8.57
2022-08-14T08:11:37.105Z,8.48
2022-08-14T08:14:16.329Z,9.05
2022-08-14T08:16:47.506Z,7.63
2022-08-14T08:19:19.322Z,8.55
2022-08-14T08:21:47.186Z,7.55
2022-08-14T08:24:20.152Z,8.35
2022-08-14T08:26:50.299Z,8.02
2022-08-14T08:29:25.144Z,8.95
2022-08-14T08:31:56.471Z,8.68
2022-08-14T08:34:32.719Z,8.73
2022-08-14T08:37:05.139Z,8.93
2022-08-14T08:40:01.885Z,7.88
2022-08-14T08:42:41.263Z,7.70
2022-08-14T08:45:14.952Z,7.60
2022-08-14T08:47:45.489Z,7.78
2022-08-14T08:50:22.994Z,7.88
2022-08-14T08:53:03.137Z,7.30
2022-08-14T08:55:39.354Z,6.93
2022-08-14T08:58:12.513Z,8.10
2022-08-14T09:00:48.952Z,7.03
2022-08-14T09:03:20.419Z,6.75
2022-08-14T09:05:59.383Z,6.97
2022-08-14T09:08:32.865Z,7.10
2022-08-14T09:11:19.837Z,7.00
2022-08-14T09:13:50.945Z,6.72
2022-08-14T09:16:21.765Z,6.78
2022-08-14T09:18:50.744Z,6.70
2022-08-14T09:21:21.250Z,5.82
2022-08-14T09:24:29.193Z,5.93
2022-08-14T09:26:49.477Z,6.43
2022-08-14T09:29:23.385Z,6.43
2022-08-14T09:31:57.356Z,6.03
2022-08-14T09:35:19.926Z,6.15
2022-08-14T09:38:25.850Z,5.63
2022-08-14T09:41:15.621Z,5.50
2022-08-14T09:43:48.896Z,6.00
2022-08-14T09:46:21.225Z,5.93
2022-08-14T09:49:04.147Z,6.25
2022-08-14T09:51:32.967Z,6.28
2022-08-14T09:54:22.321Z,5.60
2022-08-14T09:56:56.644Z,5.65
2022-08-14T09:59:25.658Z,5.10
2022-08-14T10:01:55.489Z,5.95
2022-08-14T10:04:35.984Z,5.53
2022-08-14T10:07:08.511Z,5.35
2022-08-14T10:10:00.297Z,5.90
2022-08-14T10:12:50.217Z,5.32
2022-08-14T10:15:22.638Z,6.22
2022-08-14T10:17:53.433Z,5.70
2022-08-14T10:20:41.045Z,5.82
2022-08-14T10:23:18.126Z,5.70
2022-08-14T10:25:52.951Z,5.72
2022-08-14T10:28:39.161Z,5.63
2022-08-14T10:31:17.347Z,4.78
2022-08-14T10:34:01.959Z,5.00
2022-08-14T10:36:41.162Z,4.70
2022-08-14T10:39:20.521Z,4.80
2022-08-14T10:41:53.757Z,4.90
2022-08-14T10:44:29.649Z,5.45
2022-08-14T10:47:39.554Z,4.72
2022-08-14T10:50:04.113Z,3.97
2022-08-14T10:52:34.537Z,3.35
2022-08-14T10:55:14.267Z,4.13
2022-08-14T10:57:53.355Z,4.18
2022-08-14T11:00:29.797Z,4.25
2022-08-14T11:03:17.313Z,4.10
2022-08-14T11:05:55.706Z,4.18
2022-08-14T11:08:34.243Z,3.90
2022-08-14T11:11:06.260Z,3.97
2022-08-14T11:13:33.607Z,4.18
2022-08-14T11:16:02.766Z,4.70
2022-08-14T11:18:35.709Z,4.05
2022-08-14T11:21:08.241Z,4.35
2022-08-14T11:23:44.217Z,4.38
2022-08-14T11:26:13.478Z,3.67
2022-08-14T11:28:47.804Z,4.22
2022-08-14T11:31:23.682Z,4.00
2022-08-14T11:33:58.497Z,4.13
2022-08-14T11:37:02.478Z,4.47
2022-08-14T11:39:34.608Z,4.05
2022-08-14T11:42:56.640Z,4.28
2022-08-14T11:45:04.302Z,3.92
2022-08-14T11:47:35.620Z,3.70
2022-08-14T11:50:35.979Z,4.22
2022-08-14T11:53:05.011Z,4.30
2022-08-14T11:55:38.002Z,4.78
2022-08-14T11:58:10.398Z,4.70
2022-08-14T12:00:54.637Z,4.90
2022-08-14T12:03:37.828Z,5.20
2022-08-14T12:06:28.496Z,4.53
2022-08-14T12:09:08.920Z,5.22
2022-08-14T12:11:47.349Z,4.90
2022-08-14T12:14:29.811Z,4.70
2022-08-14T12:17:02.099Z,5.00
2022-08-14T12:19:33.822Z,5.72
2022-08-14T12:22:02.792Z,4.97
2022-08-14T12:24:36.722Z,3.70
2022-08-14T12:27:07.170Z,4.55
2022-08-14T12:29:34.897Z,3.92
2022-08-14T12:32:08.935Z,4.80
2022-08-14T12:34:37.465Z,4.40
2022-08-14T12:37:08.965Z,4.03
2022-08-14T12:39:40.461Z,4.13
2022-08-14T12:42:08.426Z,4.87
2022-08-14T12:44:43.015Z,4.28
2022-08-14T12:47:17.383Z,3.53
2022-08-14T12:49:52.992Z,3.78
2022-08-14T12:52:54.001Z,4.35
2022-08-14T12:55:32.714Z,4.45
2022-08-14T12:58:35.054Z,3.97
2022-08-14T13:01:16.820Z,4.32
2022-08-14T13:03:45.143Z,3.92
2022-08-14T13:06:14.030Z,3.72
2022-08-14T13:08:52.681Z,3.92
2022-08-14T13:11:20.572Z,3.50
2022-08-14T13:13:53.861Z,3.53
2022-08-14T13:16:33.499Z,4.00
2022-08-14T13:19:05.788Z,3.60
2022-08-14T13:24:27.798Z,3.83
2022-08-14T13:26:58.359Z,3.60
2022-08-14T13:29:29.832Z,3.15
2022-08-14T13:31:58.753Z,3.05
2022-08-14T13:34:27.846Z,2.90
2022-08-14T13:37:03.540Z,3.50
2022-08-14T13:39:36.671Z,3.42
2022-08-14T13:42:13.198Z,3.40
2022-08-14T13:44:42.761Z,3.70
2022-08-14T13:47:15.320Z,3.95
2022-08-14T13:49:57.445Z,3.95
2022-08-14T13:52:59.115Z,3.50
2022-08-14T13:55:14.146Z,3.45
2022-08-14T13:57:49.463Z,3.78
2022-08-14T14:00:21.890Z,3.45
2022-08-14T14:03:00.336Z,3.08
2022-08-14T14:05:53.512Z,3.70
2022-08-14T14:08:18.893Z,4.55
2022-08-14T14:11:03.272Z,3.50
2022-08-14T14:13:31.906Z,3.90
2022-08-14T14:16:03.821Z,4.10
2022-08-14T14:18:34.686Z,3.95
2022-08-14T14:21:03.229Z,3.90
2022-08-14T14:23:32.479Z,3.65
2022-08-14T14:25:59.793Z,3.63
2022-08-14T14:28:33.595Z,3.55
2022-08-14T14:31:06.637Z,3.67
2022-08-14T14:33:47.822Z,3.20
2022-08-14T14:36:20.735Z,3.80
2022-08-14T14:39:03.552Z,3.13
2022-08-14T14:41:37.871Z,3.42
2022-08-14T14:44:16.569Z,3.90
2022-08-14T14:46:50.327Z,3.70
2022-08-14T14:49:22.030Z,3.42
2022-08-14T14:51:52.751Z,3.53
2022-08-14T14:54:31.831Z,3.47
2022-08-14T14:57:04.776Z,3.53
2022-08-14T14:59:37.382Z,3.70
2022-08-14T15:02:07.817Z,3.50
2022-08-14T15:04:38.058Z,3.55
2022-08-14T15:07:05.826Z,3.08
2022-08-14T15:09:34.299Z,3.70
2022-08-14T15:12:02.624Z,3.45
2022-08-14T15:14:54.698Z,3.53
2022-08-14T15:17:28.407Z,3.47
2022-08-14T15:20:05.878Z,3.55
2022-08-14T15:22:34.829Z,3.15
2022-08-14T15:25:01.763Z,3.05
2022-08-14T15:27:29.645Z,3.35
2022-08-14T15:29:56.545Z,3.30
2022-08-14T15:32:23.799Z,3.38
2022-08-14T15:34:52.800Z,3.35
2022-08-14T15:37:22.670Z,3.60
2022-08-14T15:39:52.779Z,2.90
2022-08-14T15:42:23.072Z,3.53
2022-08-14T15:44:57.220Z,3.30
2022-08-14T15:47:29.523Z,3.35
2022-08-14T15:49:59.457Z,3.45
2022-08-14T15:52:32.017Z,3.10
2022-08-14T15:55:03.583Z,3.53
2022-08-14T15:57:33.735Z,3.65
2022-08-14T16:00:40.836Z,3.60
2022-08-14T16:03:11.620Z,3.80
2022-08-14T16:05:38.978Z,3.40
2022-08-14T16:08:26.805Z,3.42
2022-08-14T16:10:56.565Z,3.70
2022-08-14T16:13:39.285Z,3.45
2022-08-14T16:16:47.293Z,3.47
2022-08-14T16:18:59.682Z,3.85
2022-08-14T16:21:31.673Z,3.40
2022-08-14T16:24:00.602Z,3.90
2022-08-14T16:26:29.796Z,3.30
2022-08-14T16:29:06.380Z,3.60
2022-08-14T16:31:36.820Z,3.45
2022-08-14T16:34:43.939Z,3.30
2022-08-14T16:36:53.916Z,3.67
2022-08-14T16:39:21.681Z,3.30
2022-08-14T16:41:52.339Z,3.28
2022-08-14T16:44:22.071Z,3.70
2022-08-14T16:47:05.677Z,3.33
2022-08-14T16:49:35.329Z,3.40
2022-08-14T16:52:26.426Z,3.42
2022-08-14T16:55:09.259Z,3.40
2022-08-14T16:57:52.214Z,3.05
2022-08-14T17:00:43.667Z,3.30
2022-08-14T17:03:13.363Z,3.53
2022-08-14T17:05:43.216Z,3.50
2022-08-14T17:08:32.613Z,3.10
2022-08-14T17:11:11.061Z,3.45
2022-08-14T17:13:58.639Z,3.85
2022-08-14T17:16:37.863Z,3.45
2022-08-14T17:19:13.710Z,3.70
2022-08-14T17:21:41.876Z,4.15
2022-08-14T17:24:55.736Z,3.65
2022-08-14T17:27:04.299Z,3.90
2022-08-14T17:29:34.802Z,3.60
2022-08-14T17:32:28.211Z,3.38
2022-08-14T17:34:57.908Z,3.83
2022-08-14T17:37:29.863Z,3.55
2022-08-14T17:42:53.835Z,3.50
2022-08-14T17:45:43.081Z,3.33
2022-08-14T17:49:15.559Z,3.90
2022-08-14T17:51:23.608Z,4.15
2022-08-14T17:54:01.547Z,4.00
2022-08-14T17:56:33.878Z,3.92
2022-08-14T17:59:05.192Z,3.90
2022-08-14T18:01:37.350Z,3.70
2022-08-14T18:04:28.781Z,4.28
2022-08-14T18:06:57.908Z,4.47
2022-08-14T18:09:33.393Z,4.15
2022-08-14T18:12:03.818Z,4.25
2022-08-14T18:14:31.872Z,4.20
2022-08-14T18:17:02.221Z,4.13
2022-08-14T18:19:31.429Z,4.40
2022-08-14T18:22:05.597Z,4.80
2022-08-14T18:24:50.961Z,4.20
2022-08-14T18:27:22.734Z,4.10
2022-08-14T18:29:56.437Z,4.43
2022-08-14T18:32:27.973Z,4.20
2022-08-14T18:35:21.306Z,4.57
2022-08-14T18:37:55.887Z,4.43
2022-08-14T18:40:33.485Z,4.40
2022-08-14T18:43:03.751Z,4.53
2022-08-14T18:45:41.262Z,4.72
2022-08-14T18:48:18.586Z,4.70
2022-08-14T18:50:52.970Z,4.97
2022-08-14T18:53:25.027Z,4.72
2022-08-14T18:55:55.052Z,4.57
2022-08-14T18:58:31.513Z,4.68
2022-08-14T19:01:01.569Z,4.47
2022-08-14T19:03:44.921Z,4.93
2022-08-14T19:06:15.853Z,4.68
2022-08-14T19:08:49.251Z,4.70
2022-08-14T19:14:00.041Z,5.27
2022-08-14T19:16:33.706Z,5.05
2022-08-14T19:19:03.736Z,5.15
2022-08-14T19:21:32.492Z,5.00
2022-08-14T19:24:27.604Z,5.05
2022-08-14T19:27:37.266Z,5.80
2022-08-14T19:30:20.529Z,5.40
2022-08-14T19:32:56.037Z,5.85
2022-08-14T19:35:48.466Z,5.15
2022-08-14T19:38:46.038Z,5.03
2022-08-14T19:41:18.933Z,4.80
2022-08-14T19:43:55.505Z,5.55
2022-08-14T19:46:39.419Z,5.47
2022-08-14T19:51:50.117Z,5.80
2022-08-14T19:54:18.176Z,5.45
2022-08-14T19:56:46.164Z,6.10
2022-08-14T19:59:18.568Z,5.72
2022-08-14T20:01:49.484Z,6.00
2022-08-14T20:04:47.795Z,5.80
2022-08-14T20:07:59.386Z,5.82
2022-08-14T20:13:29.375Z,6.03
2022-08-14T20:16:06.903Z,6.03
2022-08-14T20:18:50.792Z,6.40
2022-08-14T20:21:19.995Z,6.43
2022-08-14T20:23:47.909Z,5.97
2022-08-14T20:26:31.149Z,6.20
2022-08-14T20:29:06.935Z,6.25
2022-08-14T20:31:37.381Z,6.72
2022-08-14T20:34:24.147Z,6.03
2022-08-14T20:37:04.209Z,6.68
2022-08-14T20:39:34.180Z,6.78
2022-08-14T20:42:30.096Z,6.22
2022-08-14T20:45:24.056Z,7.22
2022-08-14T20:48:01.194Z,6.53
2022-08-14T20:50:30.181Z,6.63
2022-08-14T20:53:06.078Z,6.47
2022-08-14T20:55:41.698Z,7.40
2022-08-14T20:58:41.759Z,7.10
2022-08-14T21:01:18.392Z,7.25
2022-08-14T21:03:56.292Z,7.00
2022-08-14T21:07:23.012Z,6.55
2022-08-14T21:10:04.939Z,6.90
2022-08-14T21:12:34.840Z,7.00
2022-08-14T21:15:01.004Z,6.82
2022-08-14T21:17:29.612Z,6.72
2022-08-14T21:19:56.828Z,7.28
2022-08-14T21:22:25.622Z,6.60
2022-08-14T21:25:02.308Z,6.75
2022-08-14T21:27:37.510Z,7.63
2022-08-14T21:30:08.638Z,6.75
2022-08-14T21:32:46.965Z,6.82
2022-08-14T21:35:18.910Z,6.90
2022-08-14T21:37:47.671Z,7.07
2022-08-14T21:40:40.560Z,7.40
2022-08-14T21:43:05.706Z,7.25
2022-08-14T21:45:35.610Z,7.10
2022-08-14T21:48:10.500Z,6.82
2022-08-14T21:51:00.246Z,7.53
2022-08-14T21:53:30.909Z,7.85
2022-08-14T21:55:58.658Z,7.45
2022-08-14T21:58:51.747Z,7.47
2022-08-14T22:01:14.522Z,7.20
2022-08-14T22:03:44.998Z,7.93
2022-08-14T22:06:12.433Z,7.63
2022-08-14T22:08:46.641Z,7.53
2022-08-14T22:11:23.203Z,7.32
2022-08-14T22:13:52.078Z,7.60
2022-08-14T22:17:01.613Z,7.22
2022-08-14T22:19:13.720Z,7.47
2022-08-14T22:21:43.986Z,8.30
2022-08-14T22:24:11.987Z,7.75
2022-08-14T22:27:01.255Z,7.43
2022-08-14T22:29:29.186Z,8.10
2022-08-14T22:31:56.185Z,7.47
2022-08-14T22:34:23.797Z,8.18
2022-08-14T22:36:51.577Z,7.80
2022-08-14T22:40:16.812Z,7.10
2022-08-14T22:42:19.541Z,7.72
2022-08-14T22:44:50.268Z,8.15
2022-08-14T22:47:19.322Z,7.18
2022-08-14T22:50:30.989Z,8.10
2022-08-14T22:52:40.917Z,8.18
2022-08-14T22:55:16.851Z,7.57
2022-08-14T22:57:44.155Z,8.07
2022-08-14T23:00:25.675Z,7.65
2022-08-14T23:03:00.515Z,8.20
2022-08-14T23:05:39.709Z,8.10
2022-08-14T23:08:58.573Z,7.28
2022-08-14T23:10:59.690Z,6.90
2022-08-14T23:13:26.810Z,6.88
2022-08-14T23:15:58.171Z,7.13
2022-08-14T23:18:29.796Z,7.25
2022-08-14T23:20:57.471Z,8.23
2022-08-14T23:23:24.975Z,7.70
2022-08-14T23:25:59.705Z,8.25
2022-08-14T23:28:56.879Z,7.30
2022-08-14T23:31:34.248Z,7.07
2022-08-14T23:34:06.584Z,7.75
2022-08-14T23:36:38.119Z,7.70
2022-08-14T23:39:21.514Z,7.88
2022-08-14T23:41:53.701Z,7.00
2022-08-14T23:44:24.509Z,7.75
2022-08-14T23:46:56.984Z,7.90
2022-08-14T23:49:28.756Z,6.97
2022-08-14T23:53:04.159Z,7.07
2022-08-14T23:55:02.892Z,5.72
2022-08-14T23:57:30.662Z,6.22
2022-08-14T23:59:57.808Z,6.95
